Amsterdam, Netherlands

9:37 AM CEST on July 26, 2016 (GMT +0200)
Aalsmeer - Oost | | Change Station

Elev -13 ft 52.28 °N, 4.79 °E | Updated 6 minutes ago

Partly Cloudy
Partly Cloudy
72.9 °F
Feels Like 75 °F
N
2.2
Wind Variable Wind from SE
Gusts 3.8 mph

Today
High -- | Low -- °F
--% Chance of Precip.
Yesterday
High -- | Low -- °F
Precip. -- in
Pressure 30.12 in
Visibility 6.2 miles
Clouds Few 1500 ft
Heat Index 75 °F
Dew Point 62 °F
Humidity 68%
Rainfall 0.00 in
Snow Depth Not available.
5:52 AM 9:41 PM
Waning Gibbous, 57% visible
METAR EHAM 260725Z 24004KT 200V290 9999 FEW015 20/16 Q1020 NOSIG
Pressure 30.12 in
Visibility 6.2 miles
Clouds Few 1500 ft
Heat Index 75 °F
Dew Point 62 °F
Humidity 68%
Rainfall 0.00 in
Snow Depth Not available.
5:52 AM 9:41 PM
Waning Gibbous, 57% visible
METAR EHAM 260725Z 24004KT 200V290 9999 FEW015 20/16 Q1020 NOSIG

10-Day Weather Forecast

×

Almanac

Astronomy

Jul. 26, 2016 Rise Set
Actual Time
Civil Twilight
Nautical Twilight
Astronomical Twilight
Moon
Length of Visible Light
Length of Day
Tomorrow will be .
, % of the Moon is Illuminated

Today's Extremes

Country Highs Country Lows

Community

WunderPhotos

Upload Photos

1,927,552 photos uploaded!

WunderBlog® & News

Nearby

Air Quality

  Air Quality AQ Index Pollutant
Not available.

Snow Depth

Station Depth Elevation

Earthquake Activity

City Distance Mag. Time & Date
Minimum magnitude displayed is 2.5.

Coastal Water Temperatures

Place Temperature

Stations

Nearby Weather Stations

Station Location Temp. Windchill Dew Point Humidity Wind Precip. Elev Updated Type